Aérodrome :
LOGIN :

S'inscrire | Disclaimer

   EN    FR    IT 

 










Légende :    VFR   VFR Marginal   IFR   IFR Intensif   IFR Très Intensif
Visi : 
Plafond : 
>= 8 km
>= 3000ft
5 à 8 km
1000 à 3000 ft
1500m à 5 km
500 à 1000 ft
800 à 1500m
200 à 500 ft
< 800m
< 200 ft
Symboles :   Orages  Brouillard  Fortes neiges  Fortes précipitations  Vent > 20 kt
SIGMETs :   Divers  Orages  Givrage  Turbulence  Onde Orograph.  Cendres Volcan.







- Altitude de l'aérodrome : 204 ft
- Code IATA : AGF
- Voir les cartes d'approche


LFBA - Agen

DERNIER METAR :
  • 181800Z AUTO 09008KT CAVOK 11/05 Q1011 NOSIG

METARs EXPIRÉS :
  • 181730Z AUTO 11010KT CAVOK 12/05 Q1011 NOSIG
  • 181700Z AUTO 10013KT CAVOK 12/05 Q1010 NOSIG
  • 181630Z AUTO 11012KT CAVOK 13/05 Q1010 NOSIG
  • 181600Z AUTO 11013KT CAVOK 13/05 Q1010 NOSIG
  • 181530Z AUTO 11018KT 9999 FEW045 14/06 Q1010 NOSIG
  • 181500Z AUTO 11016KT 9999 FEW044 14/06 Q1010 NOSIG

TAF TAF LFBA
Valide du 18 à 18h jusqu'au 19 à 03h UTC


181700Z 1818/1903 12012KT CAVOK
BECMG 1822/1824 09005KT
Pas de NOTAMs connus pour ce terrain.
1 SIGMET publié pour la FIR Bordeaux (LFBB) :
 
Turbulence forte
LFBB SIGMET 3 VALID 181700/182100 LFPW
LFBB BORDEAUX FIR/UIR SEV TURB FCST WI N4715 W00015 - N4715 E00200 - N4630 E00300 - N4515 E00245 - N4545 W00015 - N4715 W00015 FL320/380 MOV SW 15KT NC=



MET'MAP, la Météo Aéronautique d'un coup d'oeil ! - Copyright ORBIFLY Décembre 2007 - Disclaimer

ORBIFLY MET'MAP TEAM :

Programmation & Développement : Alexandra Zaïnal
Conception & Développement : Baudouin d'Aumeries
Co-Programmation & Développement : Marc-Olivier Méhu
Soutien technique & logistique : Manuel Goepfert

Contact : metmap@orbifly.com




SOURCES & CREDITS :

   NOAA